createdAt,value
2019-01-13T00:00:41.902Z,9.80
2019-01-13T00:01:42.042Z,10.90
2019-01-13T00:02:41.911Z,9.80
2019-01-13T00:03:41.932Z,10.10
2019-01-13T00:04:41.934Z,10.00
2019-01-13T00:05:41.959Z,10.20
2019-01-13T00:06:42.242Z,9.50
2019-01-13T00:07:42.111Z,9.90
2019-01-13T00:08:41.998Z,9.60
2019-01-13T00:09:42.023Z,10.10
2019-01-13T00:10:42.155Z,11.30
2019-01-13T00:11:42.150Z,11.70
2019-01-13T00:12:42.190Z,12.00
2019-01-13T00:13:42.208Z,12.90
2019-01-13T00:14:42.227Z,11.90
2019-01-13T00:15:42.122Z,13.00
2019-01-13T00:16:42.251Z,12.70
2019-01-13T00:17:42.158Z,14.70
2019-01-13T00:18:42.172Z,15.90
2019-01-13T00:19:42.315Z,15.10
2019-01-13T00:20:42.212Z,15.10
2019-01-13T00:21:42.327Z,14.80
2019-01-13T00:22:42.249Z,16.30
2019-01-13T00:23:42.376Z,15.90
2019-01-13T00:24:42.395Z,15.60
2019-01-13T00:25:42.409Z,16.30
2019-01-13T00:26:42.446Z,16.10
2019-01-13T00:27:42.313Z,15.10
2019-01-13T00:28:42.328Z,15.70
2019-01-13T00:29:42.477Z,16.40
2019-01-13T00:30:42.487Z,16.00
2019-01-13T00:31:42.528Z,15.30
2019-01-13T00:32:42.410Z,16.00
2019-01-13T00:33:42.441Z,14.10
2019-01-13T00:34:42.432Z,12.90
2019-01-13T00:35:42.439Z,12.40
2019-01-13T00:36:42.628Z,12.40
2019-01-13T00:37:42.604Z,12.20
2019-01-13T00:38:42.513Z,10.80
2019-01-13T00:39:42.515Z,11.20
2019-01-13T00:40:42.529Z,10.50
2019-01-13T00:41:42.695Z,10.80
2019-01-13T00:42:42.561Z,11.10
2019-01-13T00:43:42.585Z,11.80
2019-01-13T00:44:43.826Z,11.60
2019-01-13T00:45:42.619Z,11.00
2019-01-13T00:46:42.806Z,12.20
2019-01-13T00:47:42.643Z,11.50
2019-01-13T00:48:42.782Z,12.80
2019-01-13T00:49:42.801Z,12.20
2019-01-13T00:50:42.913Z,13.40
2019-01-13T00:51:42.835Z,12.70
2019-01-13T00:52:42.725Z,13.80
2019-01-13T00:53:43.015Z,13.30
2019-01-13T00:54:42.882Z,13.70
2019-01-13T00:55:42.831Z,13.50
2019-01-13T00:56:42.919Z,13.10
2019-01-13T00:57:42.818Z,13.80
2019-01-13T00:58:42.830Z,13.60
2019-01-13T00:59:42.863Z,13.50
2019-01-13T01:00:42.954Z,14.80
2019-01-13T01:01:42.874Z,15.50
2019-01-13T01:02:42.941Z,14.70
2019-01-13T01:03:42.908Z,16.30
2019-01-13T01:04:42.925Z,14.50
2019-01-13T01:05:43.043Z,14.90
2019-01-13T01:06:43.077Z,15.80
2019-01-13T01:07:42.974Z,16.40
2019-01-13T01:08:42.985Z,17.00
2019-01-13T01:09:43.007Z,16.80
2019-01-13T01:10:43.119Z,16.90
2019-01-13T01:11:43.033Z,17.00
2019-01-13T01:12:43.053Z,17.00
2019-01-13T01:13:43.072Z,17.80
2019-01-13T01:14:43.118Z,17.00
2019-01-13T01:15:43.329Z,16.70
2019-01-13T01:16:43.242Z,16.30
2019-01-13T01:17:43.135Z,17.10
2019-01-13T01:18:43.274Z,16.00
2019-01-13T01:19:43.170Z,16.00
2019-01-13T01:21:43.204Z,15.40
2019-01-13T01:22:43.228Z,14.60
2019-01-13T01:23:43.357Z,14.40
2019-01-13T01:24:43.370Z,15.60
2019-01-13T01:25:43.487Z,15.10
2019-01-13T01:26:43.284Z,16.30
2019-01-13T01:27:43.417Z,14.80
2019-01-13T01:28:44.414Z,15.70
2019-01-13T01:29:43.318Z,16.10
2019-01-13T01:30:43.571Z,16.80
2019-01-13T01:31:43.485Z,16.60
2019-01-13T01:32:43.500Z,19.00
2019-01-13T01:33:43.390Z,18.20
2019-01-13T01:34:43.532Z,17.90
2019-01-13T01:35:43.522Z,18.80
2019-01-13T01:36:43.440Z,19.70
2019-01-13T01:37:43.585Z,19.50
2019-01-13T01:38:43.484Z,18.70
2019-01-13T01:39:43.549Z,19.30
2019-01-13T01:40:43.658Z,19.80
2019-01-13T01:41:43.524Z,20.80
2019-01-13T01:42:43.547Z,22.80
2019-01-13T01:43:43.680Z,23.50
2019-01-13T01:44:43.695Z,25.30
2019-01-13T01:45:43.809Z,24.20
2019-01-13T01:46:43.728Z,25.40
2019-01-13T01:47:43.619Z,27.70
2019-01-13T01:48:43.645Z,26.10
2019-01-13T01:49:43.671Z,26.40
2019-01-13T01:50:43.940Z,27.10
2019-01-13T01:51:43.812Z,26.50
2019-01-13T01:52:43.703Z,27.20
2019-01-13T01:53:43.722Z,28.30
2019-01-13T01:54:43.733Z,27.90
2019-01-13T01:55:43.840Z,29.90
2019-01-13T01:56:43.760Z,29.30
2019-01-13T01:57:43.794Z,29.40
2019-01-13T01:58:43.797Z,28.20
2019-01-13T01:59:43.846Z,28.20
2019-01-13T02:00:44.056Z,27.70
2019-01-13T02:01:43.893Z,27.20
2019-01-13T02:02:43.865Z,28.10
2019-01-13T02:03:44.035Z,28.60
2019-01-13T02:04:43.916Z,28.10
2019-01-13T02:05:44.010Z,27.00
2019-01-13T02:06:43.944Z,27.00
2019-01-13T02:07:43.943Z,27.20
2019-01-13T02:08:44.078Z,27.60
2019-01-13T02:09:43.976Z,27.10
2019-01-13T02:10:44.039Z,28.10
2019-01-13T02:11:43.994Z,28.30
2019-01-13T02:12:44.144Z,29.30
2019-01-13T02:13:44.159Z,28.40
2019-01-13T02:14:44.057Z,30.40
2019-01-13T02:15:44.186Z,30.40
2019-01-13T02:16:44.093Z,31.40
2019-01-13T02:17:44.110Z,31.60
2019-01-13T02:18:44.243Z,32.00
2019-01-13T02:19:44.192Z,32.50
2019-01-13T02:20:44.310Z,32.60
2019-01-13T02:21:44.286Z,32.90
2019-01-13T02:22:44.218Z,31.90
2019-01-13T02:23:44.202Z,32.40
2019-01-13T02:24:44.206Z,33.40
2019-01-13T02:25:44.502Z,34.20
2019-01-13T02:26:44.240Z,33.90
2019-01-13T02:27:44.383Z,34.60
2019-01-13T02:28:44.400Z,34.00
2019-01-13T02:29:44.285Z,34.70
2019-01-13T02:30:49.000Z,35.50
2019-01-13T02:31:44.332Z,35.70
2019-01-13T02:32:44.352Z,35.80
2019-01-13T02:33:44.361Z,38.20
2019-01-13T02:34:44.418Z,35.00
2019-01-13T02:35:44.545Z,36.50
2019-01-13T02:36:44.399Z,36.90
2019-01-13T02:37:44.545Z,35.90
2019-01-13T02:38:44.475Z,37.20
2019-01-13T02:39:44.455Z,37.60
2019-01-13T02:40:44.643Z,32.80
2019-01-13T02:41:44.479Z,30.40
2019-01-13T02:42:44.624Z,29.60
2019-01-13T02:43:44.651Z,25.80
2019-01-13T02:44:44.531Z,23.90
2019-01-13T02:45:44.640Z,21.20
2019-01-13T02:46:44.574Z,21.30
2019-01-13T02:47:44.577Z,21.20
2019-01-13T02:48:44.621Z,20.30
2019-01-13T02:49:44.619Z,20.50
2019-01-13T02:50:44.758Z,19.20
2019-01-13T02:51:44.658Z,21.50
2019-01-13T02:52:44.781Z,21.40
2019-01-13T02:53:44.800Z,23.00
2019-01-13T02:54:44.811Z,22.40
2019-01-13T02:55:44.756Z,23.00
2019-01-13T02:56:44.723Z,23.30
2019-01-13T02:57:44.864Z,21.50
2019-01-13T02:58:44.749Z,22.20
2019-01-13T02:59:44.774Z,22.50
2019-01-13T03:00:44.960Z,22.50
2019-01-13T03:01:44.922Z,22.10
2019-01-13T03:02:44.820Z,22.20
2019-01-13T03:03:44.961Z,21.60
2019-01-13T03:04:44.874Z,21.80
2019-01-13T03:05:45.024Z,25.20
2019-01-13T03:06:44.903Z,23.00
2019-01-13T03:07:44.890Z,24.40
2019-01-13T03:08:45.035Z,23.00
2019-01-13T03:09:44.924Z,23.40
2019-01-13T03:10:44.940Z,22.30
2019-01-13T03:11:45.068Z,24.20
2019-01-13T03:12:45.019Z,24.40
2019-01-13T03:13:45.001Z,23.40
2019-01-13T03:14:45.136Z,23.00
2019-01-13T03:15:45.150Z,22.80
2019-01-13T03:16:45.385Z,23.10
2019-01-13T03:17:45.068Z,23.50
2019-01-13T03:18:45.077Z,23.40
2019-01-13T03:19:45.076Z,23.40
2019-01-13T03:20:45.226Z,22.90
2019-01-13T03:21:45.211Z,22.80
2019-01-13T03:22:45.151Z,21.30
2019-01-13T03:23:45.189Z,21.50
2019-01-13T03:24:45.203Z,20.00
2019-01-13T03:25:45.302Z,20.00
2019-01-13T03:26:45.261Z,20.60
2019-01-13T03:27:45.339Z,20.00
2019-01-13T03:28:45.350Z,20.30
2019-01-13T03:29:45.244Z,20.70
2019-01-13T03:30:45.418Z,19.10
2019-01-13T03:31:45.396Z,18.30
2019-01-13T03:32:45.476Z,18.30
2019-01-13T03:33:45.426Z,19.40
2019-01-13T03:34:45.326Z,19.50
2019-01-13T03:35:45.474Z,21.20
2019-01-13T03:36:45.474Z,22.40
2019-01-13T03:37:45.369Z,22.20
2019-01-13T03:38:45.415Z,22.30
2019-01-13T03:39:45.412Z,22.00
2019-01-13T03:40:45.633Z,21.90
2019-01-13T03:41:45.430Z,21.90
2019-01-13T03:42:45.524Z,23.40
2019-01-13T03:43:45.581Z,22.90
2019-01-13T03:44:45.607Z,21.90
2019-01-13T03:45:45.714Z,20.60
2019-01-13T03:46:45.635Z,22.40
2019-01-13T03:47:45.643Z,21.30
2019-01-13T03:48:45.662Z,22.40
2019-01-13T03:49:45.675Z,23.50
2019-01-13T03:50:45.684Z,23.50
2019-01-13T03:51:45.706Z,23.80
2019-01-13T03:52:52.841Z,21.90
2019-01-13T03:53:45.617Z,22.70
2019-01-13T03:54:45.749Z,22.20
2019-01-13T03:55:45.742Z,22.60
2019-01-13T03:56:45.786Z,21.70
2019-01-13T03:57:45.671Z,22.60
2019-01-13T03:58:45.685Z,21.10
2019-01-13T03:59:45.703Z,20.30
2019-01-13T04:00:45.898Z,20.20
2019-01-13T04:01:45.748Z,19.40
2019-01-13T04:02:45.773Z,18.70
2019-01-13T04:03:45.898Z,18.40
2019-01-13T04:04:45.798Z,18.40
2019-01-13T04:05:45.923Z,18.90
2019-01-13T04:06:45.937Z,17.50
2019-01-13T04:07:45.959Z,18.00
2019-01-13T04:08:45.844Z,18.00
2019-01-13T04:09:45.856Z,17.60
2019-01-13T04:10:45.883Z,18.00
2019-01-13T04:11:45.953Z,17.10
2019-01-13T04:12:45.908Z,17.40
2019-01-13T04:13:46.051Z,17.80
2019-01-13T04:14:46.069Z,18.20
2019-01-13T04:15:46.188Z,17.50
2019-01-13T04:16:45.978Z,17.40
2019-01-13T04:17:46.118Z,18.10
2019-01-13T04:18:46.022Z,18.30
2019-01-13T04:19:46.021Z,17.00
2019-01-13T04:20:46.141Z,17.50
2019-01-13T04:21:46.101Z,17.20
2019-01-13T04:22:46.195Z,17.50
2019-01-13T04:23:46.082Z,17.10
2019-01-13T04:24:46.100Z,17.30
2019-01-13T04:25:46.220Z,19.60
2019-01-13T04:26:46.137Z,18.60
2019-01-13T04:27:46.154Z,20.80
2019-01-13T04:28:46.158Z,20.60
2019-01-13T04:29:46.184Z,19.80
2019-01-13T04:30:46.392Z,20.00
2019-01-13T04:31:46.229Z,19.60
2019-01-13T04:32:46.352Z,20.40
2019-01-13T04:33:46.249Z,20.80
2019-01-13T04:34:46.257Z,22.10
2019-01-13T04:35:46.369Z,20.60
2019-01-13T04:36:46.288Z,20.30
2019-01-13T04:37:46.309Z,20.50
2019-01-13T04:38:46.318Z,20.60
2019-01-13T04:39:46.375Z,20.70
2019-01-13T04:40:46.522Z,20.40
2019-01-13T04:41:46.381Z,20.10
2019-01-13T04:42:46.386Z,19.50
2019-01-13T04:43:46.399Z,19.80
2019-01-13T04:44:46.428Z,20.10
2019-01-13T04:45:46.591Z,19.90
2019-01-13T04:46:46.455Z,19.50
2019-01-13T04:47:46.471Z,18.70
2019-01-13T04:48:46.615Z,20.60
2019-01-13T04:49:46.509Z,20.90
2019-01-13T04:50:46.608Z,19.60
2019-01-13T04:51:46.523Z,20.00
2019-01-13T04:52:46.555Z,20.80
2019-01-13T04:53:46.558Z,21.40
2019-01-13T04:54:46.581Z,22.90
2019-01-13T04:55:46.752Z,24.90
2019-01-13T04:56:46.605Z,24.30
2019-01-13T04:57:46.644Z,25.40
2019-01-13T04:58:46.653Z,26.40
2019-01-13T04:59:46.648Z,28.50
2019-01-13T05:00:46.893Z,29.10
2019-01-13T05:01:46.693Z,28.70
2019-01-13T05:02:46.827Z,29.30
2019-01-13T05:03:46.715Z,28.60
2019-01-13T05:04:46.779Z,28.50
2019-01-13T05:05:46.853Z,29.00
2019-01-13T05:06:46.756Z,28.10
2019-01-13T05:07:46.793Z,27.20
2019-01-13T05:08:46.918Z,28.20
2019-01-13T05:09:46.932Z,28.40
2019-01-13T05:10:46.917Z,30.70
2019-01-13T05:11:46.847Z,31.50
2019-01-13T05:12:46.873Z,31.30
2019-01-13T05:13:46.881Z,32.50
2019-01-13T05:14:47.018Z,32.60
2019-01-13T05:15:47.068Z,34.50
2019-01-13T05:16:47.044Z,35.10
2019-01-13T05:17:47.063Z,34.60
2019-01-13T05:18:46.957Z,35.20
2019-01-13T05:19:47.097Z,35.00
2019-01-13T05:20:47.214Z,34.70
2019-01-13T05:21:47.018Z,35.30
2019-01-13T05:22:47.005Z,35.30
2019-01-13T05:23:47.041Z,37.90
2019-01-13T05:24:47.172Z,36.50
2019-01-13T05:25:47.215Z,36.00
2019-01-13T05:26:47.204Z,36.70
2019-01-13T05:27:47.090Z,36.10
2019-01-13T05:28:47.235Z,37.60
2019-01-13T05:29:47.253Z,36.80
2019-01-13T05:30:47.367Z,35.00
2019-01-13T05:31:47.160Z,36.90
2019-01-13T05:32:47.297Z,36.40
2019-01-13T05:33:47.197Z,34.70
2019-01-13T05:34:47.334Z,33.80
2019-01-13T05:35:47.370Z,32.20
2019-01-13T05:36:47.357Z,31.60
2019-01-13T05:37:47.252Z,31.50
2019-01-13T05:38:47.252Z,31.20
2019-01-13T05:39:47.404Z,31.40
2019-01-13T05:40:47.527Z,33.10
2019-01-13T05:41:47.433Z,31.50
2019-01-13T05:42:47.454Z,29.60
2019-01-13T05:43:47.358Z,29.90
2019-01-13T05:44:47.379Z,27.90
2019-01-13T05:45:47.595Z,27.60
2019-01-13T05:46:47.411Z,25.00
2019-01-13T05:47:47.410Z,26.00
2019-01-13T05:48:47.551Z,27.10
2019-01-13T05:49:47.441Z,28.00
2019-01-13T05:50:47.593Z,28.00
2019-01-13T05:51:47.466Z,27.40
2019-01-13T05:52:47.614Z,27.20
2019-01-13T05:53:47.495Z,27.60
2019-01-13T05:54:47.517Z,27.10
2019-01-13T05:55:47.636Z,26.20
2019-01-13T05:56:47.564Z,29.90
2019-01-13T05:57:47.557Z,29.40
2019-01-13T05:58:47.704Z,30.00
2019-01-13T05:59:47.719Z,30.20
2019-01-13T06:00:47.701Z,31.40
2019-01-13T06:01:49.265Z,30.90
2019-01-13T06:02:47.644Z,31.10
2019-01-13T06:03:47.686Z,31.30
2019-01-13T06:04:47.663Z,29.60
2019-01-13T06:05:47.802Z,29.00
2019-01-13T06:06:47.714Z,28.40
2019-01-13T06:07:47.722Z,29.50
2019-01-13T06:08:47.862Z,30.30
2019-01-13T06:09:47.875Z,30.60
2019-01-13T06:10:47.867Z,31.10
2019-01-13T06:11:47.783Z,31.90
2019-01-13T06:12:47.802Z,30.20
2019-01-13T06:13:47.808Z,31.10
2019-01-13T06:14:47.954Z,32.80
2019-01-13T06:15:47.948Z,30.80
2019-01-13T06:16:47.855Z,33.80
2019-01-13T06:17:47.880Z,35.10
2019-01-13T06:18:47.930Z,36.70
2019-01-13T06:19:48.035Z,36.70
2019-01-13T06:20:48.145Z,35.60
2019-01-13T06:21:48.062Z,33.80
2019-01-13T06:22:47.994Z,33.40
2019-01-13T06:23:47.959Z,34.90
2019-01-13T06:24:48.107Z,32.90
2019-01-13T06:25:48.176Z,32.90
2019-01-13T06:26:48.008Z,34.50
2019-01-13T06:27:48.045Z,33.00
2019-01-13T06:28:48.172Z,32.20
2019-01-13T06:29:48.187Z,32.90
2019-01-13T06:30:48.138Z,32.70
2019-01-13T06:31:48.220Z,34.00
2019-01-13T06:32:48.103Z,34.60
2019-01-13T06:33:48.243Z,34.80
2019-01-13T06:34:48.262Z,33.10
2019-01-13T06:35:48.208Z,33.20
2019-01-13T06:36:48.292Z,32.20
2019-01-13T06:37:48.190Z,28.80
2019-01-13T06:38:48.195Z,29.00
2019-01-13T06:39:48.217Z,29.50
2019-01-13T06:40:48.332Z,29.10
2019-01-13T06:41:48.366Z,27.70
2019-01-13T06:42:48.261Z,28.70
2019-01-13T06:43:48.279Z,26.70
2019-01-13T06:44:48.413Z,26.70
2019-01-13T06:45:48.455Z,26.30
2019-01-13T06:46:48.313Z,27.50
2019-01-13T06:47:48.458Z,29.10
2019-01-13T06:48:48.351Z,31.20
2019-01-13T06:49:48.370Z,30.60
2019-01-13T06:50:48.431Z,32.80
2019-01-13T06:51:48.416Z,31.50
2019-01-13T06:52:48.539Z,31.80
2019-01-13T06:53:48.437Z,31.30
2019-01-13T06:54:48.442Z,32.20
2019-01-13T06:55:48.621Z,32.80
2019-01-13T06:56:48.482Z,34.60
2019-01-13T06:57:48.535Z,35.40
2019-01-13T06:58:48.519Z,34.00
2019-01-13T06:59:48.520Z,33.60
2019-01-13T07:00:48.622Z,33.50
2019-01-13T07:01:48.670Z,34.40
2019-01-13T07:02:48.568Z,37.60
2019-01-13T07:03:48.586Z,38.50
2019-01-13T07:04:48.592Z,40.70
2019-01-13T07:05:48.779Z,40.10
2019-01-13T07:06:48.640Z,39.50
2019-01-13T07:07:48.757Z,39.20
2019-01-13T07:08:48.670Z,41.00
2019-01-13T07:09:48.788Z,39.80
2019-01-13T07:10:48.771Z,39.80
2019-01-13T07:11:48.692Z,41.40
2019-01-13T07:12:48.723Z,41.40
2019-01-13T07:13:48.740Z,40.90
2019-01-13T07:14:48.742Z,40.30
2019-01-13T07:15:48.860Z,42.70
2019-01-13T07:16:48.897Z,42.50
2019-01-13T07:17:48.910Z,42.30
2019-01-13T07:18:48.806Z,41.30
2019-01-13T07:19:48.833Z,42.60
2019-01-13T07:20:48.939Z,41.50
2019-01-13T07:21:48.886Z,42.70
2019-01-13T07:22:48.874Z,42.60
2019-01-13T07:23:48.899Z,43.80
2019-01-13T07:24:48.927Z,40.50
2019-01-13T07:25:49.183Z,39.50
2019-01-13T07:26:48.926Z,39.80
2019-01-13T07:27:48.934Z,38.60
2019-01-13T07:28:49.074Z,39.40
2019-01-13T07:29:48.963Z,37.50
2019-01-13T07:30:49.157Z,38.70
2019-01-13T07:31:48.997Z,37.80
2019-01-13T07:32:49.012Z,36.30
2019-01-13T07:33:49.151Z,36.10
2019-01-13T07:34:49.168Z,37.60
2019-01-13T07:35:49.178Z,37.20
2019-01-13T07:36:49.227Z,35.40
2019-01-13T07:37:49.094Z,36.60
2019-01-13T07:38:49.152Z,38.40
2019-01-13T07:39:49.123Z,38.20
2019-01-13T07:40:49.129Z,36.50
2019-01-13T07:41:49.320Z,34.00
2019-01-13T07:42:49.285Z,35.70
2019-01-13T07:43:49.210Z,39.00
2019-01-13T07:44:49.322Z,39.40
2019-01-13T07:45:49.212Z,37.60
2019-01-13T07:46:49.393Z,40.70
2019-01-13T07:47:49.359Z,37.20
2019-01-13T07:48:49.258Z,37.50
2019-01-13T07:49:49.390Z,40.80
2019-01-13T07:50:49.409Z,41.30
2019-01-13T07:51:49.445Z,42.10
2019-01-13T07:52:49.314Z,46.70
2019-01-13T07:53:49.318Z,46.90
2019-01-13T07:54:49.347Z,49.30
2019-01-13T07:55:49.351Z,47.70
2019-01-13T07:56:49.617Z,48.10
2019-01-13T07:57:49.387Z,48.60
2019-01-13T07:58:49.402Z,44.90
2019-01-13T07:59:49.427Z,45.60
2019-01-13T08:00:49.555Z,45.40
2019-01-13T08:01:49.599Z,48.10
2019-01-13T08:02:49.459Z,45.50
2019-01-13T08:03:49.490Z,46.60
2019-01-13T08:04:49.611Z,44.70
2019-01-13T08:05:49.494Z,44.80
2019-01-13T08:06:50.242Z,44.10
2019-01-13T08:07:49.661Z,43.40
2019-01-13T08:08:49.680Z,46.60
2019-01-13T08:09:49.569Z,50.80
2019-01-13T08:10:49.707Z,52.20
2019-01-13T08:11:49.647Z,55.50
2019-01-13T08:12:49.622Z,53.40
2019-01-13T08:13:49.895Z,57.60
2019-01-13T08:14:49.637Z,53.00
2019-01-13T08:15:49.648Z,55.20
2019-01-13T08:16:49.667Z,56.60
2019-01-13T08:17:49.810Z,58.30
2019-01-13T08:18:49.922Z,56.20
2019-01-13T08:19:49.842Z,55.60
2019-01-13T08:20:49.859Z,55.10
2019-01-13T08:21:49.870Z,56.70
2019-01-13T08:22:49.755Z,52.90
2019-01-13T08:23:49.999Z,52.10
2019-01-13T08:24:49.809Z,49.20
2019-01-13T08:25:49.796Z,48.60
2019-01-13T08:26:49.822Z,46.20
2019-01-13T08:27:49.872Z,47.60
2019-01-13T08:28:49.948Z,46.70
2019-01-13T08:29:49.882Z,45.40
2019-01-13T08:30:49.893Z,48.60
2019-01-13T08:31:49.890Z,46.50
2019-01-13T08:32:49.912Z,46.30
2019-01-13T08:33:49.979Z,47.50
2019-01-13T08:34:50.066Z,44.90
2019-01-13T08:35:50.082Z,45.90
2019-01-13T08:36:49.967Z,47.90
2019-01-13T08:37:50.108Z,45.50
2019-01-13T08:38:50.104Z,42.40
2019-01-13T08:39:50.135Z,46.50
2019-01-13T08:40:50.042Z,50.10
2019-01-13T08:41:50.099Z,50.70
2019-01-13T08:42:50.060Z,51.40
2019-01-13T08:43:50.299Z,48.80
2019-01-13T08:44:50.100Z,46.30
2019-01-13T08:45:50.595Z,47.40
2019-01-13T08:46:50.120Z,41.70
2019-01-13T08:47:50.142Z,46.10
2019-01-13T08:48:50.276Z,44.90
2019-01-13T08:49:50.168Z,43.20
2019-01-13T08:50:50.303Z,42.30
2019-01-13T08:51:50.320Z,42.20
2019-01-13T08:52:50.222Z,42.00
2019-01-13T08:53:50.288Z,40.30
2019-01-13T08:54:50.371Z,37.50
2019-01-13T08:55:50.273Z,39.30
2019-01-13T08:56:50.275Z,39.10
2019-01-13T08:57:50.416Z,38.80
2019-01-13T08:58:50.359Z,36.70
2019-01-13T08:59:50.443Z,36.90
2019-01-13T09:00:50.346Z,37.00
2019-01-13T09:01:50.345Z,36.60
2019-01-13T09:02:50.489Z,36.70
2019-01-13T09:03:50.483Z,36.70
2019-01-13T09:04:50.520Z,35.20
2019-01-13T09:05:50.414Z,33.20
2019-01-13T09:06:50.427Z,33.70
2019-01-13T09:07:50.437Z,32.00
2019-01-13T09:08:50.685Z,30.80
2019-01-13T09:09:50.467Z,30.90
2019-01-13T09:10:50.491Z,31.40
2019-01-13T09:11:50.531Z,30.00
2019-01-13T09:12:56.660Z,33.40
2019-01-13T09:13:50.588Z,32.60
2019-01-13T09:14:50.569Z,31.80
2019-01-13T09:15:50.565Z,32.40
2019-01-13T09:16:50.581Z,33.40
2019-01-13T09:17:50.724Z,32.50
2019-01-13T09:18:50.832Z,32.10
2019-01-13T09:19:50.749Z,31.60
2019-01-13T09:20:50.766Z,31.10
2019-01-13T09:21:50.675Z,33.00
2019-01-13T09:22:50.678Z,32.00
2019-01-13T09:23:50.852Z,30.40
2019-01-13T09:24:50.834Z,29.30
2019-01-13T09:25:50.841Z,28.80
2019-01-13T09:26:51.316Z,26.80
2019-01-13T09:27:50.877Z,25.20
2019-01-13T09:28:50.871Z,25.40
2019-01-13T09:29:50.782Z,24.30
2019-01-13T09:30:50.809Z,24.60
2019-01-13T09:31:52.024Z,24.70
2019-01-13T09:32:50.829Z,24.40
2019-01-13T09:33:50.947Z,24.80
2019-01-13T09:34:50.987Z,24.00
2019-01-13T09:35:50.895Z,23.10
2019-01-13T09:36:50.931Z,22.30
2019-01-13T09:37:50.912Z,20.40
2019-01-13T09:38:51.029Z,19.60
2019-01-13T09:39:50.939Z,19.90
2019-01-13T09:40:50.956Z,19.20
2019-01-13T09:41:51.104Z,19.00
2019-01-13T09:42:51.032Z,18.60
2019-01-13T09:43:51.238Z,17.50
2019-01-13T09:44:51.161Z,16.50
2019-01-13T09:45:51.173Z,16.90
2019-01-13T09:46:51.062Z,16.40
2019-01-13T09:47:51.215Z,15.90
2019-01-13T09:48:51.215Z,15.70
2019-01-13T09:49:51.116Z,14.80
2019-01-13T09:50:51.145Z,15.00
2019-01-13T09:51:51.170Z,13.70
2019-01-13T09:52:51.172Z,15.00
2019-01-13T09:53:51.421Z,15.30
2019-01-13T09:54:51.336Z,13.50
2019-01-13T09:55:51.355Z,14.40
2019-01-13T09:56:51.376Z,15.00
2019-01-13T09:57:51.392Z,14.50
2019-01-13T09:58:51.471Z,14.20
2019-01-13T09:59:51.435Z,15.50
2019-01-13T10:00:51.375Z,16.70
2019-01-13T10:01:51.366Z,18.40
2019-01-13T10:02:51.369Z,17.90
2019-01-13T10:03:51.441Z,17.80
2019-01-13T10:04:51.403Z,18.40
2019-01-13T10:05:51.430Z,18.20
2019-01-13T10:06:51.467Z,19.20
2019-01-13T10:07:51.476Z,17.50
2019-01-13T10:08:51.538Z,16.70
2019-01-13T10:09:51.522Z,17.20
2019-01-13T10:10:51.651Z,20.40
2019-01-13T10:11:51.567Z,13.70
2019-01-13T10:12:51.582Z,17.10
2019-01-13T10:13:51.867Z,23.90
2019-01-13T10:14:51.607Z,18.10
2019-01-13T10:15:51.665Z,9.20
2019-01-13T10:16:51.652Z,9.20
2019-01-13T10:17:51.679Z,8.30
2019-01-13T10:18:51.763Z,7.30
2019-01-13T10:19:51.712Z,7.40
2019-01-13T10:20:51.921Z,7.20
2019-01-13T10:21:51.775Z,6.70
2019-01-13T10:22:51.915Z,7.70
2019-01-13T10:23:51.813Z,6.40
2019-01-13T10:24:51.829Z,6.30
2019-01-13T10:25:52.129Z,7.20
2019-01-13T10:26:51.883Z,6.50
2019-01-13T10:27:51.912Z,6.50
2019-01-13T10:28:51.966Z,6.10
2019-01-13T10:29:51.957Z,6.10
2019-01-13T10:30:52.065Z,7.10
2019-01-13T10:31:51.998Z,6.90
2019-01-13T10:32:54.417Z,7.40
2019-01-13T10:33:52.188Z,6.90
2019-01-13T10:34:52.067Z,6.70
2019-01-13T10:35:52.269Z,7.60
2019-01-13T10:36:52.130Z,7.20
2019-01-13T10:37:52.143Z,7.00
2019-01-13T10:38:52.163Z,6.90
2019-01-13T10:39:52.210Z,6.70
2019-01-13T10:40:52.260Z,6.50
2019-01-13T10:41:52.239Z,6.60
2019-01-13T10:42:52.384Z,6.90
2019-01-13T10:43:52.298Z,6.60
2019-01-13T10:44:52.322Z,6.90
2019-01-13T10:45:52.489Z,7.20
2019-01-13T10:47:52.382Z,6.30
2019-01-13T10:48:52.407Z,6.40
2019-01-13T10:49:52.438Z,6.70
2019-01-13T10:50:52.638Z,6.40
2019-01-13T10:51:52.492Z,7.00
2019-01-13T10:52:52.656Z,7.20
2019-01-13T10:53:52.528Z,6.50
2019-01-13T10:54:52.685Z,7.00
2019-01-13T10:55:52.580Z,7.10
2019-01-13T10:56:52.612Z,6.70
2019-01-13T10:57:52.736Z,7.40
2019-01-13T10:58:52.665Z,6.70
2019-01-13T10:59:52.686Z,6.90
2019-01-13T11:00:52.707Z,6.70
2019-01-13T11:01:52.744Z,6.10
2019-01-13T11:02:52.933Z,7.10
2019-01-13T11:03:52.778Z,7.20
2019-01-13T11:04:52.924Z,8.30
2019-01-13T11:05:52.952Z,7.90
2019-01-13T11:06:52.849Z,7.20
2019-01-13T11:07:53.055Z,6.60
2019-01-13T11:08:52.912Z,7.60
2019-01-13T11:09:53.025Z,7.40
2019-01-13T11:10:53.016Z,7.10
2019-01-13T11:11:52.981Z,8.00
2019-01-13T11:12:53.016Z,7.00
2019-01-13T11:13:53.022Z,7.20
2019-01-13T11:14:53.275Z,5.80
2019-01-13T11:15:53.075Z,6.20
2019-01-13T11:16:53.229Z,6.40
2019-01-13T11:17:53.130Z,6.20
2019-01-13T11:18:53.148Z,7.00
2019-01-13T11:19:56.738Z,5.60
2019-01-13T11:20:53.331Z,6.80
2019-01-13T11:21:53.226Z,6.70
2019-01-13T11:22:53.381Z,6.40
2019-01-13T11:23:53.287Z,7.70
2019-01-13T11:24:53.492Z,12.50
2019-01-13T11:25:53.341Z,9.70
2019-01-13T11:26:53.351Z,7.80
2019-01-13T11:27:53.401Z,6.70
2019-01-13T11:28:53.411Z,7.80
2019-01-13T11:29:53.536Z,6.40
2019-01-13T11:30:53.472Z,6.70
2019-01-13T11:31:53.618Z,6.40
2019-01-13T11:32:53.510Z,5.70
2019-01-13T11:33:53.667Z,6.30
2019-01-13T11:34:53.796Z,6.00
2019-01-13T11:35:53.719Z,6.50
2019-01-13T11:36:53.632Z,6.70
2019-01-13T11:37:53.695Z,6.20
2019-01-13T11:38:53.802Z,6.30
2019-01-13T11:39:53.976Z,6.30
2019-01-13T11:40:53.740Z,6.20
2019-01-13T11:41:53.776Z,6.00
2019-01-13T11:42:53.799Z,6.00
2019-01-13T11:43:53.933Z,5.60
2019-01-13T11:44:53.935Z,5.40
2019-01-13T11:45:53.988Z,6.10
2019-01-13T11:46:53.896Z,6.50
2019-01-13T11:47:54.038Z,6.90
2019-01-13T11:48:54.067Z,7.40
2019-01-13T11:49:54.118Z,6.10
2019-01-13T11:50:54.123Z,6.40
2019-01-13T11:51:54.048Z,7.70
2019-01-13T11:52:54.184Z,7.10
2019-01-13T11:53:54.101Z,6.90
2019-01-13T11:54:54.286Z,7.40
2019-01-13T11:55:54.129Z,7.50
2019-01-13T11:56:54.289Z,6.60
2019-01-13T11:57:54.320Z,7.50
2019-01-13T11:58:54.224Z,6.80
2019-01-13T11:59:54.348Z,6.90
2019-01-13T12:00:54.399Z,6.80
2019-01-13T12:01:54.316Z,7.70
2019-01-13T12:02:54.460Z,7.00
2019-01-13T12:03:54.368Z,6.00
2019-01-13T12:04:54.441Z,7.50
2019-01-13T12:05:54.420Z,6.60
2019-01-13T12:06:54.478Z,6.60
2019-01-13T12:07:54.593Z,6.70
2019-01-13T12:08:54.624Z,6.50
2019-01-13T12:09:54.699Z,6.60
2019-01-13T12:10:54.559Z,6.60
2019-01-13T12:11:54.586Z,7.80
2019-01-13T12:12:54.610Z,7.10
2019-01-13T12:13:54.639Z,6.50
2019-01-13T12:14:54.947Z,7.40
2019-01-13T12:15:54.709Z,7.60
2019-01-13T12:16:54.734Z,6.90
2019-01-13T12:17:54.765Z,7.70
2019-01-13T12:18:54.786Z,8.10
2019-01-13T12:19:54.919Z,7.40
2019-01-13T12:20:54.861Z,7.80
2019-01-13T12:21:55.990Z,7.60
2019-01-13T12:22:54.896Z,7.60
2019-01-13T12:23:55.051Z,7.00
2019-01-13T12:24:55.185Z,7.00
2019-01-13T12:25:54.989Z,6.90
2019-01-13T12:26:55.028Z,7.10
2019-01-13T12:27:55.049Z,7.30
2019-01-13T12:28:55.200Z,7.00
2019-01-13T12:29:55.257Z,7.50
2019-01-13T12:30:55.141Z,7.10
2019-01-13T12:31:55.284Z,7.40
2019-01-13T12:32:55.180Z,7.10
2019-01-13T12:33:55.218Z,7.00
2019-01-13T12:34:55.394Z,6.60
2019-01-13T12:35:55.400Z,7.10
2019-01-13T12:36:55.430Z,6.30
2019-01-13T12:37:55.373Z,6.70
2019-01-13T12:38:55.488Z,6.50
2019-01-13T12:39:55.510Z,6.50
2019-01-13T12:40:55.546Z,7.40
2019-01-13T12:41:55.464Z,7.40
2019-01-13T12:42:55.479Z,8.00
2019-01-13T12:43:55.544Z,7.60
2019-01-13T12:44:55.632Z,7.90
2019-01-13T12:45:55.581Z,7.40
2019-01-13T12:46:55.633Z,7.10
2019-01-13T12:47:55.750Z,6.90
2019-01-13T12:48:55.658Z,7.10
2019-01-13T12:49:55.782Z,7.10
2019-01-13T12:50:55.725Z,6.90
2019-01-13T12:51:55.742Z,6.90
2019-01-13T12:52:55.756Z,7.10
2019-01-13T12:53:55.809Z,7.30
2019-01-13T12:54:55.882Z,7.70
2019-01-13T12:55:55.891Z,8.00
2019-01-13T12:56:55.883Z,6.90
2019-01-13T12:57:55.915Z,6.90
2019-01-13T12:58:55.949Z,6.80
2019-01-13T12:59:56.020Z,6.90
2019-01-13T13:00:55.998Z,6.20